sensor_id;sensor_type;location;lat;lon;timestamp;pressure;altitude;pressure_sealevel;temperature;humidity
20444;BME280;10381;53.730;10.010;2023-02-22T00:02:59;101357.72;;;6.18;100.00
20444;BME280;10381;53.730;10.010;2023-02-22T00:06:59;101358.88;;;6.14;100.00
20444;BME280;10381;53.730;10.010;2023-02-22T00:11:03;101351.34;;;6.08;100.00
20444;BME280;10381;53.730;10.010;2023-02-22T00:15:04;101344.19;;;6.10;100.00
20444;BME280;10381;53.730;10.010;2023-02-22T00:19:04;101344.75;;;6.15;100.00
20444;BME280;10381;53.730;10.010;2023-02-22T00:23:06;101336.88;;;6.15;100.00
20444;BME280;10381;53.730;10.010;2023-02-22T00:27:07;101337.53;;;6.18;100.00
20444;BME280;10381;53.730;10.010;2023-02-22T00:31:07;101328.63;;;6.21;100.00
20444;BME280;10381;53.730;10.010;2023-02-22T00:35:08;101324.00;;;6.10;100.00
20444;BME280;10381;53.730;10.010;2023-02-22T00:39:08;101327.31;;;6.14;100.00
20444;BME280;10381;53.730;10.010;2023-02-22T00:43:09;101335.66;;;6.06;100.00
20444;BME280;10381;53.730;10.010;2023-02-22T00:47:09;101335.94;;;6.02;100.00
20444;BME280;10381;53.730;10.010;2023-02-22T00:51:10;101335.94;;;6.02;100.00
20444;BME280;10381;53.730;10.010;2023-02-22T00:55:15;101333.13;;;6.05;100.00
20444;BME280;10381;53.730;10.010;2023-02-22T00:59:16;101342.69;;;6.06;100.00
20444;BME280;10381;53.730;10.010;2023-02-22T01:03:18;101344.19;;;6.10;100.00
20444;BME280;10381;53.730;10.010;2023-02-22T01:07:19;101339.50;;;6.15;100.00
20444;BME280;10381;53.730;10.010;2023-02-22T01:11:20;101339.97;;;6.07;100.00
20444;BME280;10381;53.730;10.010;2023-02-22T01:15:23;101336.13;;;6.13;100.00
20444;BME280;10381;53.730;10.010;2023-02-22T01:19:24;101330.78;;;6.14;100.00
20444;BME280;10381;53.730;10.010;2023-02-22T01:23:24;101334.44;;;6.12;100.00
20444;BME280;10381;53.730;10.010;2023-02-22T01:27:24;101325.44;;;6.16;100.00
20444;BME280;10381;53.730;10.010;2023-02-22T01:31:25;101327.66;;;6.22;100.00
20444;BME280;10381;53.730;10.010;2023-02-22T01:35:29;101329.19;;;6.26;100.00
20444;BME280;10381;53.730;10.010;2023-02-22T01:39:30;101332.00;;;6.23;100.00
20444;BME280;10381;53.730;10.010;2023-02-22T01:43:31;101320.81;;;6.19;100.00
20444;BME280;10381;53.730;10.010;2023-02-22T01:47:32;101313.59;;;6.23;100.00
20444;BME280;10381;53.730;10.010;2023-02-22T01:51:35;101319.41;;;6.28;100.00
20444;BME280;10381;53.730;10.010;2023-02-22T01:55:37;101314.31;;;6.25;100.00
20444;BME280;10381;53.730;10.010;2023-02-22T01:59:40;101314.13;;;6.28;100.00
20444;BME280;10381;53.730;10.010;2023-02-22T02:03:43;101308.03;;;6.28;100.00
20444;BME280;10381;53.730;10.010;2023-02-22T02:07:44;101304.53;;;6.27;100.00
20444;BME280;10381;53.730;10.010;2023-02-22T02:11:45;101299.28;;;6.27;100.00
20444;BME280;10381;53.730;10.010;2023-02-22T02:15:46;101298.72;;;6.22;100.00
20444;BME280;10381;53.730;10.010;2023-02-22T02:28:39;101291.50;;;6.26;100.00
20444;BME280;10381;53.730;10.010;2023-02-22T02:37:08;101288.31;;;6.21;100.00
20444;BME280;10381;53.730;10.010;2023-02-22T02:41:29;101285.38;;;6.11;100.00
20444;BME280;10381;53.730;10.010;2023-02-22T02:45:51;101282.28;;;6.18;100.00
20444;BME280;10381;53.730;10.010;2023-02-22T02:50:06;101277.19;;;6.15;100.00
20444;BME280;10381;53.730;10.010;2023-02-22T02:54:10;101272.06;;;6.14;100.00
20444;BME280;10381;53.730;10.010;2023-02-22T02:58:18;101266.41;;;6.20;100.00
20444;BME280;10381;53.730;10.010;2023-02-22T03:06:49;101254.94;;;6.21;100.00
20444;BME280;10381;53.730;10.010;2023-02-22T03:11:10;101255.59;;;6.25;100.00
20444;BME280;10381;53.730;10.010;2023-02-22T03:19:39;101249.47;;;6.24;100.00
20444;BME280;10381;53.730;10.010;2023-02-22T03:24:03;101242.97;;;6.30;100.00
20444;BME280;10381;53.730;10.010;2023-02-22T03:28:08;101232.84;;;6.24;100.00
20444;BME280;10381;53.730;10.010;2023-02-22T03:32:15;101235.56;;;6.22;100.00
20444;BME280;10381;53.730;10.010;2023-02-22T03:36:23;101230.88;;;6.27;100.00
20444;BME280;10381;53.730;10.010;2023-02-22T03:40:30;101228.78;;;6.32;100.00
20444;BME280;10381;53.730;10.010;2023-02-22T03:44:34;101235.75;;;6.33;100.00
20444;BME280;10381;53.730;10.010;2023-02-22T03:48:50;101241.31;;;6.29;100.00
20444;BME280;10381;53.730;10.010;2023-02-22T03:52:53;101232.03;;;6.23;100.00
20444;BME280;10381;53.730;10.010;2023-02-22T03:56:57;101237.28;;;6.23;100.00
20444;BME280;10381;53.730;10.010;2023-02-22T04:00:58;101234.44;;;6.26;100.00
20444;BME280;10381;53.730;10.010;2023-02-22T04:04:58;101231.06;;;6.24;100.00
20444;BME280;10381;53.730;10.010;2023-02-22T04:08:58;101229.38;;;6.23;100.00
20444;BME280;10381;53.730;10.010;2023-02-22T04:12:59;101228.63;;;6.21;100.00
20444;BME280;10381;53.730;10.010;2023-02-22T04:16:59;101235.56;;;6.22;100.00
20444;BME280;10381;53.730;10.010;2023-02-22T04:20:59;101233.16;;;6.19;100.00
20444;BME280;10381;53.730;10.010;2023-02-22T04:25:00;101237.44;;;6.20;100.00
20444;BME280;10381;53.730;10.010;2023-02-22T04:29:00;101236.25;;;6.26;100.00
20444;BME280;10381;53.730;10.010;2023-02-22T04:33:00;101238.97;;;6.24;100.00
20444;BME280;10381;53.730;10.010;2023-02-22T04:37:01;101235.56;;;6.22;100.00
20444;BME280;10381;53.730;10.010;2023-02-22T04:41:01;101241.97;;;6.18;100.00
20444;BME280;10381;53.730;10.010;2023-02-22T04:45:02;101234.81;;;6.20;100.00
20444;BME280;10381;53.730;10.010;2023-02-22T04:49:04;101232.03;;;6.23;100.00
20444;BME280;10381;53.730;10.010;2023-02-22T04:53:04;101231.25;;;6.21;100.00
20444;BME280;10381;53.730;10.010;2023-02-22T04:57:04;101224.41;;;6.18;100.00
20444;BME280;10381;53.730;10.010;2023-02-22T05:01:04;101220.81;;;6.19;100.00
20444;BME280;10381;53.730;10.010;2023-02-22T05:05:05;101226.75;;;6.23;100.00
20444;BME280;10381;53.730;10.010;2023-02-22T05:09:05;101221.00;;;6.31;100.00
20444;BME280;10381;53.730;10.010;2023-02-22T05:13:06;101224.47;;;6.31;100.00
20444;BME280;10381;53.730;10.010;2023-02-22T05:17:06;101225.31;;;6.32;100.00
20444;BME280;10381;53.730;10.010;2023-02-22T05:21:06;101211.31;;;6.31;100.00
20444;BME280;10381;53.730;10.010;2023-02-22T05:25:07;101221.75;;;6.33;100.00
20444;BME280;10381;53.730;10.010;2023-02-22T05:29:09;101219.75;;;6.36;100.00
20444;BME280;10381;53.730;10.010;2023-02-22T05:33:10;101219.00;;;6.34;100.00
20444;BME280;10381;53.730;10.010;2023-02-22T05:37:10;101221.09;;;6.29;100.00
20444;BME280;10381;53.730;10.010;2023-02-22T05:41:11;101218.56;;;6.28;100.00
20444;BME280;10381;53.730;10.010;2023-02-22T05:45:13;101225.97;;;6.35;100.00
20444;BME280;10381;53.730;10.010;2023-02-22T05:49:14;101222.38;;;6.36;100.00
20444;BME280;10381;53.730;10.010;2023-02-22T05:53:14;101217.13;;;6.36;100.00
20444;BME280;10381;53.730;10.010;2023-02-22T05:57:15;101217.13;;;6.36;100.00
20444;BME280;10381;53.730;10.010;2023-02-22T06:01:16;101215.34;;;6.37;100.00
20444;BME280;10381;53.730;10.010;2023-02-22T06:05:16;101210.81;;;6.39;100.00
20444;BME280;10381;53.730;10.010;2023-02-22T06:09:17;101212.41;;;6.42;100.00
20444;BME280;10381;53.730;10.010;2023-02-22T06:13:17;101211.88;;;6.36;100.00
20444;BME280;10381;53.730;10.010;2023-02-22T06:17:17;101215.03;;;6.42;100.00
20444;BME280;10381;53.730;10.010;2023-02-22T06:21:17;101215.03;;;6.42;100.00
20444;BME280;10381;53.730;10.010;2023-02-22T06:25:21;101218.63;;;6.40;100.00
20444;BME280;10381;53.730;10.010;2023-02-22T06:29:24;101222.66;;;6.46;100.00
20444;BME280;10381;53.730;10.010;2023-02-22T06:33:24;101217.97;;;6.37;100.00
20444;BME280;10381;53.730;10.010;2023-02-22T06:37:24;101221.16;;;6.42;100.00
20444;BME280;10381;53.730;10.010;2023-02-22T06:41:25;101215.50;;;6.48;100.00
20444;BME280;10381;53.730;10.010;2023-02-22T06:45:25;101218.97;;;6.49;100.00
20444;BME280;10381;53.730;10.010;2023-02-22T06:49:26;101216.88;;;6.54;100.00
20444;BME280;10381;53.730;10.010;2023-02-22T06:53:26;101223.09;;;6.53;100.00
20444;BME280;10381;53.730;10.010;2023-02-22T06:57:27;101223.84;;;6.55;100.00
20444;BME280;10381;53.730;10.010;2023-02-22T07:01:27;101221.00;;;6.58;100.00
20444;BME280;10381;53.730;10.010;2023-02-22T07:05:27;101225.91;;;6.64;100.00
20444;BME280;10381;53.730;10.010;2023-02-22T07:09:28;101220.34;;;6.69;100.00
20444;BME280;10381;53.730;10.010;2023-02-22T07:13:28;101226.22;;;6.72;100.00
20444;BME280;10381;53.730;10.010;2023-02-22T07:17:29;101225.28;;;6.73;100.00
20444;BME280;10381;53.730;10.010;2023-02-22T07:21:29;101228.16;;;6.83;100.00
20444;BME280;10381;53.730;10.010;2023-02-22T07:25:30;101227.31;;;6.82;100.00
20444;BME280;10381;53.730;10.010;2023-02-22T07:29:30;101223.75;;;6.83;100.00
20444;BME280;10381;53.730;10.010;2023-02-22T07:33:30;101219.94;;;6.88;100.00
20444;BME280;10381;53.730;10.010;2023-02-22T07:37:31;101218.06;;;6.90;100.00
20444;BME280;10381;53.730;10.010;2023-02-22T07:41:31;101218.59;;;6.95;100.00
20444;BME280;10381;53.730;10.010;2023-02-22T07:45:33;101222.41;;;6.91;100.00
20444;BME280;10381;53.730;10.010;2023-02-22T07:49:34;101213.31;;;6.95;100.00
20444;BME280;10381;53.730;10.010;2023-02-22T07:53:34;101219.06;;;7.14;100.00
20444;BME280;10381;53.730;10.010;2023-02-22T07:57:35;101214.84;;;7.12;100.00
20444;BME280;10381;53.730;10.010;2023-02-22T08:01:35;101217.09;;;7.31;100.00
20444;BME280;10381;53.730;10.010;2023-02-22T08:05:37;101214.56;;;7.42;100.00
20444;BME280;10381;53.730;10.010;2023-02-22T08:09:38;101207.94;;;7.36;100.00
20444;BME280;10381;53.730;10.010;2023-02-22T08:13:38;101204.34;;;7.50;100.00
20444;BME280;10381;53.730;10.010;2023-02-22T08:17:39;101202.44;;;7.78;100.00
20444;BME280;10381;53.730;10.010;2023-02-22T08:21:39;101205.88;;;7.91;100.00
20444;BME280;10381;53.730;10.010;2023-02-22T08:25:39;101201.16;;;7.83;100.00
20444;BME280;10381;53.730;10.010;2023-02-22T08:29:40;101202.41;;;7.90;100.00
20444;BME280;10381;53.730;10.010;2023-02-22T08:33:40;101201.78;;;7.87;100.00
20444;BME280;10381;53.730;10.010;2023-02-22T08:37:42;101200.88;;;8.12;100.00
20444;BME280;10381;53.730;10.010;2023-02-22T08:41:43;101194.22;;;8.19;100.00
20444;BME280;10381;53.730;10.010;2023-02-22T08:45:44;101189.75;;;8.32;100.00
20444;BME280;10381;53.730;10.010;2023-02-22T08:49:45;101184.81;;;8.28;100.00
20444;BME280;10381;53.730;10.010;2023-02-22T08:53:45;101180.47;;;8.27;100.00
20444;BME280;10381;53.730;10.010;2023-02-22T08:57:45;101180.22;;;8.43;100.00
20444;BME280;10381;53.730;10.010;2023-02-22T09:01:46;101169.41;;;8.70;100.00
20444;BME280;10381;53.730;10.010;2023-02-22T09:05:46;101151.63;;;8.96;100.00
20444;BME280;10381;53.730;10.010;2023-02-22T09:09:46;101142.41;;;9.13;100.00
20444;BME280;10381;53.730;10.010;2023-02-22T09:13:47;101140.03;;;9.32;100.00
20444;BME280;10381;53.730;10.010;2023-02-22T09:17:47;101120.66;;;9.09;100.00
20444;BME280;10381;53.730;10.010;2023-02-22T09:21:52;101117.91;;;9.56;100.00
20444;BME280;10381;53.730;10.010;2023-02-22T09:25:52;101114.31;;;9.46;100.00
20444;BME280;10381;53.730;10.010;2023-02-22T09:29:53;101113.81;;;9.52;100.00
20444;BME280;10381;53.730;10.010;2023-02-22T09:33:55;101108.88;;;9.02;100.00
20444;BME280;10381;53.730;10.010;2023-02-22T09:37:56;101105.47;;;10.01;100.00
20444;BME280;10381;53.730;10.010;2023-02-22T09:42:22;101081.75;;;10.00;100.00
20444;BME280;10381;53.730;10.010;2023-02-22T09:46:37;101082.44;;;9.58;100.00
20444;BME280;10381;53.730;10.010;2023-02-22T09:50:43;101088.19;;;9.75;100.00
20444;BME280;10381;53.730;10.010;2023-02-22T09:54:47;101096.75;;;9.67;100.00
20444;BME280;10381;53.730;10.010;2023-02-22T09:58:54;101092.56;;;9.42;100.00
20444;BME280;10381;53.730;10.010;2023-02-22T10:03:19;101097.47;;;9.69;100.00
20444;BME280;10381;53.730;10.010;2023-02-22T10:07:27;101092.41;;;9.66;100.00
20444;BME280;10381;53.730;10.010;2023-02-22T10:11:48;101088.09;;;9.09;100.00
20444;BME280;10381;53.730;10.010;2023-02-22T10:16:01;101085.34;;;9.33;100.00
20444;BME280;10381;53.730;10.010;2023-02-22T10:20:20;101079.78;;;9.70;100.00
20444;BME280;10381;53.730;10.010;2023-02-22T10:28:36;101076.38;;;8.78;100.00
20444;BME280;10381;53.730;10.010;2023-02-22T10:32:44;101076.16;;;8.92;100.00
20444;BME280;10381;53.730;10.010;2023-02-22T10:36:48;101082.78;;;8.86;100.00
20444;BME280;10381;53.730;10.010;2023-02-22T10:45:30;101065.16;;;9.09;100.00
20444;BME280;10381;53.730;10.010;2023-02-22T10:49:43;101062.84;;;8.93;100.00
20444;BME280;10381;53.730;10.010;2023-02-22T10:53:55;101061.31;;;9.25;100.00
20444;BME280;10381;53.730;10.010;2023-02-22T10:58:05;101055.16;;;9.02;100.00
20444;BME280;10381;53.730;10.010;2023-02-22T11:02:21;101053.47;;;8.89;100.00
20444;BME280;10381;53.730;10.010;2023-02-22T11:06:22;101051.31;;;8.83;100.00
20444;BME280;10381;53.730;10.010;2023-02-22T11:10:30;101043.78;;;9.12;100.00
20444;BME280;10381;53.730;10.010;2023-02-22T11:14:31;101033.28;;;9.56;100.00
20444;BME280;10381;53.730;10.010;2023-02-22T11:18:33;101027.25;;;10.09;100.00
20444;BME280;10381;53.730;10.010;2023-02-22T11:22:40;101000.50;;;10.12;100.00
20444;BME280;10381;53.730;10.010;2023-02-22T11:26:43;100986.66;;;10.61;100.00
20444;BME280;10381;53.730;10.010;2023-02-22T11:30:48;100983.34;;;10.69;100.00
20444;BME280;10381;53.730;10.010;2023-02-22T11:34:50;100963.16;;;10.47;100.00
20444;BME280;10381;53.730;10.010;2023-02-22T11:38:53;100971.28;;;10.55;100.00
20444;BME280;10381;53.730;10.010;2023-02-22T11:43:21;100952.28;;;10.08;100.00
20444;BME280;10381;53.730;10.010;2023-02-22T11:47:24;100953.78;;;10.43;100.00
20444;BME280;10381;53.730;10.010;2023-02-22T11:56:25;100946.03;;;10.51;100.00
20444;BME280;10381;53.730;10.010;2023-02-22T12:00:43;100944.63;;;10.47;100.00
20444;BME280;10381;53.730;10.010;2023-02-22T12:09:16;100937.22;;;9.88;100.00
20444;BME280;10381;53.730;10.010;2023-02-22T12:13:29;100930.50;;;10.26;100.00
20444;BME280;10381;53.730;10.010;2023-02-22T12:22:22;100912.38;;;10.42;100.00
20444;BME280;10381;53.730;10.010;2023-02-22T12:26:35;100909.78;;;10.52;100.00
20444;BME280;10381;53.730;10.010;2023-02-22T12:30:40;100904.59;;;10.81;100.00
20444;BME280;10381;53.730;10.010;2023-02-22T12:34:47;100891.06;;;10.84;100.00
20444;BME280;10381;53.730;10.010;2023-02-22T12:38:58;100893.06;;;11.01;100.00
20444;BME280;10381;53.730;10.010;2023-02-22T12:47:36;100892.47;;;10.78;100.00
20444;BME280;10381;53.730;10.010;2023-02-22T12:55:58;100882.25;;;10.74;100.00
20444;BME280;10381;53.730;10.010;2023-02-22T13:00:14;100883.66;;;10.68;100.00
20444;BME280;10381;53.730;10.010;2023-02-22T13:04:17;100879.75;;;10.82;100.00
20444;BME280;10381;53.730;10.010;2023-02-22T13:08:27;100875.16;;;10.84;100.00
20444;BME280;10381;53.730;10.010;2023-02-22T13:12:55;100880.44;;;10.74;100.00
20444;BME280;10381;53.730;10.010;2023-02-22T13:21:31;100875.38;;;10.61;100.00
20444;BME280;10381;53.730;10.010;2023-02-22T13:25:47;100876.84;;;10.75;100.00
20444;BME280;10381;53.730;10.010;2023-02-22T13:29:57;100873.69;;;10.60;100.00
20444;BME280;10381;53.730;10.010;2023-02-22T13:38:28;100854.81;;;10.94;100.00
20444;BME280;10381;53.730;10.010;2023-02-22T13:51:17;100861.50;;;10.79;100.00
20444;BME280;10381;53.730;10.010;2023-02-22T13:55:25;100846.56;;;10.78;100.00
20444;BME280;10381;53.730;10.010;2023-02-22T13:59:34;100852.91;;;10.56;100.00
20444;BME280;10381;53.730;10.010;2023-02-22T14:03:38;100853.75;;;10.97;100.00
20444;BME280;10381;53.730;10.010;2023-02-22T14:07:46;100840.03;;;11.01;100.00
20444;BME280;10381;53.730;10.010;2023-02-22T14:11:48;100854.41;;;10.89;100.00
20444;BME280;10381;53.730;10.010;2023-02-22T14:20:04;100852.22;;;10.54;100.00
20444;BME280;10381;53.730;10.010;2023-02-22T14:24:14;100846.69;;;10.66;100.00
20444;BME280;10381;53.730;10.010;2023-02-22T14:32:53;100848.69;;;10.22;100.00
20444;BME280;10381;53.730;10.010;2023-02-22T14:37:06;100838.00;;;10.03;100.00
20444;BME280;10381;53.730;10.010;2023-02-22T14:41:07;100837.25;;;10.22;100.00
20444;BME280;10381;53.730;10.010;2023-02-22T14:49:11;100823.78;;;10.04;100.00
20444;BME280;10381;53.730;10.010;2023-02-22T14:53:30;100831.06;;;10.12;100.00
20444;BME280;10381;53.730;10.010;2023-02-22T15:02:12;100826.44;;;10.04;100.00
20444;BME280;10381;53.730;10.010;2023-02-22T15:06:20;100823.63;;;9.96;100.00
20444;BME280;10381;53.730;10.010;2023-02-22T15:10:25;100817.56;;;9.84;100.00
20444;BME280;10381;53.730;10.010;2023-02-22T15:14:26;100814.75;;;9.86;100.00
20444;BME280;10381;53.730;10.010;2023-02-22T15:18:53;100814.75;;;9.86;100.00
20444;BME280;10381;53.730;10.010;2023-02-22T15:22:58;100811.94;;;9.77;100.00
20444;BME280;10381;53.730;10.010;2023-02-22T15:27:16;100817.19;;;9.68;100.00
20444;BME280;10381;53.730;10.010;2023-02-22T15:31:24;100808.78;;;9.63;100.00
20444;BME280;10381;53.730;10.010;2023-02-22T15:35:28;100815.19;;;9.60;100.00
20444;BME280;10381;53.730;10.010;2023-02-22T15:39:31;100810.13;;;9.57;100.00
20444;BME280;10381;53.730;10.010;2023-02-22T15:43:33;100812.84;;;9.46;100.00
20444;BME280;10381;53.730;10.010;2023-02-22T15:47:34;100805.56;;;9.38;100.00
20444;BME280;10381;53.730;10.010;2023-02-22T15:51:36;100806.31;;;9.29;100.00
20444;BME280;10381;53.730;10.010;2023-02-22T15:55:41;100810.81;;;9.17;100.00
20444;BME280;10381;53.730;10.010;2023-02-22T15:59:46;100814.16;;;9.19;100.00
20444;BME280;10381;53.730;10.010;2023-02-22T16:03:52;100816.56;;;9.11;100.00
20444;BME280;10381;53.730;10.010;2023-02-22T16:07:54;100819.97;;;9.02;100.00
20444;BME280;10381;53.730;10.010;2023-02-22T16:12:25;100816.13;;;8.94;100.00
20444;BME280;10381;53.730;10.010;2023-02-22T16:16:29;100823.59;;;8.89;100.00
20444;BME280;10381;53.730;10.010;2023-02-22T16:20:30;100838.75;;;8.87;100.00
20444;BME280;10381;53.730;10.010;2023-02-22T16:24:33;100833.97;;;8.81;100.00
20444;BME280;10381;53.730;10.010;2023-02-22T16:28:34;100841.06;;;8.69;100.00
20444;BME280;10381;53.730;10.010;2023-02-22T16:32:34;100839.88;;;8.62;100.00
20444;BME280;10381;53.730;10.010;2023-02-22T16:36:43;100844.78;;;8.56;100.00
20444;BME280;10381;53.730;10.010;2023-02-22T16:40:52;100842.75;;;8.48;100.00
20444;BME280;10381;53.730;10.010;2023-02-22T16:44:54;100847.56;;;8.43;100.00
20444;BME280;10381;53.730;10.010;2023-02-22T16:48:54;100854.00;;;8.39;100.00
20444;BME280;10381;53.730;10.010;2023-02-22T16:52:55;100856.16;;;8.33;100.00
20444;BME280;10381;53.730;10.010;2023-02-22T16:56:57;100859.41;;;8.37;100.00
20444;BME280;10381;53.730;10.010;2023-02-22T17:01:01;100869.34;;;8.22;100.00
20444;BME280;10381;53.730;10.010;2023-02-22T17:05:02;100875.09;;;8.16;100.00
20444;BME280;10381;53.730;10.010;2023-02-22T17:09:02;100872.34;;;8.06;100.00
20444;BME280;10381;53.730;10.010;2023-02-22T17:13:05;100878.69;;;8.04;100.00
20444;BME280;10381;53.730;10.010;2023-02-22T17:17:10;100873.03;;;7.97;100.00
20444;BME280;10381;53.730;10.010;2023-02-22T17:21:11;100880.94;;;7.97;100.00
20444;BME280;10381;53.730;10.010;2023-02-22T17:25:18;100879.41;;;8.06;100.00
20444;BME280;10381;53.730;10.010;2023-02-22T17:29:19;100881.44;;;8.02;100.00
20444;BME280;10381;53.730;10.010;2023-02-22T17:33:23;100888.41;;;8.03;100.00
20444;BME280;10381;53.730;10.010;2023-02-22T17:37:26;100887.31;;;7.95;100.00
20444;BME280;10381;53.730;10.010;2023-02-22T17:41:26;100882.22;;;7.80;100.00
20444;BME280;10381;53.730;10.010;2023-02-22T17:45:27;100890.53;;;7.87;100.00
20444;BME280;10381;53.730;10.010;2023-02-22T17:49:27;100898.13;;;7.67;100.00
20444;BME280;10381;53.730;10.010;2023-02-22T17:53:28;100902.19;;;7.60;100.00
20444;BME280;10381;53.730;10.010;2023-02-22T17:57:28;100912.56;;;7.51;100.00
20444;BME280;10381;53.730;10.010;2023-02-22T18:01:30;100912.41;;;7.41;100.00
20444;BME280;10381;53.730;10.010;2023-02-22T18:05:31;100907.78;;;7.32;100.00
20444;BME280;10381;53.730;10.010;2023-02-22T18:09:32;100914.81;;;7.44;100.00
20444;BME280;10381;53.730;10.010;2023-02-22T18:13:33;100916.69;;;7.42;100.00
20444;BME280;10381;53.730;10.010;2023-02-22T18:17:33;100914.56;;;7.47;100.00
20444;BME280;10381;53.730;10.010;2023-02-22T18:21:35;100915.56;;;7.57;100.00
20444;BME280;10381;53.730;10.010;2023-02-22T18:25:35;100912.59;;;7.62;100.00
20444;BME280;10381;53.730;10.010;2023-02-22T18:29:36;100909.59;;;7.55;100.00
20444;BME280;10381;53.730;10.010;2023-02-22T18:33:36;100908.72;;;7.55;100.00
20444;BME280;10381;53.730;10.010;2023-02-22T18:37:37;100913.41;;;7.51;100.00
20444;BME280;10381;53.730;10.010;2023-02-22T18:41:37;100907.63;;;7.46;100.00
20444;BME280;10381;53.730;10.010;2023-02-22T18:45:38;100910.53;;;7.54;100.00
20444;BME280;10381;53.730;10.010;2023-02-22T18:49:38;100911.59;;;7.52;100.00
20444;BME280;10381;53.730;10.010;2023-02-22T18:53:42;100907.63;;;7.46;100.00
20444;BME280;10381;53.730;10.010;2023-02-22T18:57:49;100912.91;;;7.46;100.00
20444;BME280;10381;53.730;10.010;2023-02-22T19:01:52;100914.56;;;7.47;100.00
20444;BME280;10381;53.730;10.010;2023-02-22T19:05:52;100911.66;;;7.39;100.00
20444;BME280;10381;53.730;10.010;2023-02-22T19:09:53;100913.25;;;7.53;100.00
20444;BME280;10381;53.730;10.010;2023-02-22T19:13:56;100909.41;;;7.45;100.00
20444;BME280;10381;53.730;10.010;2023-02-22T19:17:56;100904.84;;;7.47;100.00
20444;BME280;10381;53.730;10.010;2023-02-22T19:21:56;100905.53;;;7.38;100.00
20444;BME280;10381;53.730;10.010;2023-02-22T19:25:57;100903.03;;;7.37;100.00
20444;BME280;10381;53.730;10.010;2023-02-22T19:29:57;100903.84;;;7.37;100.00
20444;BME280;10381;53.730;10.010;2023-02-22T19:34:17;100906.16;;;7.42;100.00
20444;BME280;10381;53.730;10.010;2023-02-22T19:38:20;100896.06;;;7.36;100.00
20444;BME280;10381;53.730;10.010;2023-02-22T19:42:21;100894.63;;;7.32;100.00
20444;BME280;10381;53.730;10.010;2023-02-22T19:46:21;100890.56;;;7.39;100.00
20444;BME280;10381;53.730;10.010;2023-02-22T19:50:23;100894.53;;;7.20;100.00
20444;BME280;10381;53.730;10.010;2023-02-22T19:54:24;100892.41;;;7.25;100.00
20444;BME280;10381;53.730;10.010;2023-02-22T19:58:24;100890.94;;;7.21;100.00
20444;BME280;10381;53.730;10.010;2023-02-22T20:02:30;100887.19;;;7.13;100.00
20444;BME280;10381;53.730;10.010;2023-02-22T20:06:41;100896.00;;;7.24;100.00
20444;BME280;10381;53.730;10.010;2023-02-22T20:11:01;100888.66;;;7.17;100.00
20444;BME280;10381;53.730;10.010;2023-02-22T20:15:14;100892.28;;;7.03;100.00
20444;BME280;10381;53.730;10.010;2023-02-22T20:19:15;100894.69;;;7.06;100.00
20444;BME280;10381;53.730;10.010;2023-02-22T20:23:16;100899.19;;;6.93;100.00
20444;BME280;10381;53.730;10.010;2023-02-22T20:27:20;100896.75;;;6.90;100.00
20444;BME280;10381;53.730;10.010;2023-02-22T20:31:25;100906.22;;;6.92;100.00
20444;BME280;10381;53.730;10.010;2023-02-22T20:35:29;100906.63;;;6.99;100.00
20444;BME280;10381;53.730;10.010;2023-02-22T20:39:38;100899.56;;;6.99;100.00
20444;BME280;10381;53.730;10.010;2023-02-22T20:43:39;100896.19;;;6.97;100.00
20444;BME280;10381;53.730;10.010;2023-02-22T20:51:51;100887.03;;;6.90;100.00
20444;BME280;10381;53.730;10.010;2023-02-22T20:55:52;100889.28;;;6.83;100.00
20444;BME280;10381;53.730;10.010;2023-02-22T20:59:54;100892.75;;;6.84;100.00
20444;BME280;10381;53.730;10.010;2023-02-22T21:03:59;100884.63;;;6.87;100.00
20444;BME280;10381;53.730;10.010;2023-02-22T21:08:00;100886.94;;;6.92;100.00
20444;BME280;10381;53.730;10.010;2023-02-22T21:12:02;100883.97;;;6.96;100.00
20444;BME280;10381;53.730;10.010;2023-02-22T21:16:07;100890.88;;;6.86;100.00
20444;BME280;10381;53.730;10.010;2023-02-22T21:20:09;100887.91;;;6.91;100.00
20444;BME280;10381;53.730;10.010;2023-02-22T21:24:12;100879.88;;;6.92;100.00
20444;BME280;10381;53.730;10.010;2023-02-22T21:28:12;100880.19;;;6.88;100.00
20444;BME280;10381;53.730;10.010;2023-02-22T21:32:13;100878.63;;;6.85;100.00
20444;BME280;10381;53.730;10.010;2023-02-22T21:36:13;100877.06;;;6.82;100.00
20444;BME280;10381;53.730;10.010;2023-02-22T21:40:14;100874.44;;;6.82;100.00
20444;BME280;10381;53.730;10.010;2023-02-22T21:44:18;100876.44;;;6.79;100.00
20444;BME280;10381;53.730;10.010;2023-02-22T21:48:19;100874.66;;;6.79;100.00
20444;BME280;10381;53.730;10.010;2023-02-22T21:52:20;100878.88;;;6.69;100.00
20444;BME280;10381;53.730;10.010;2023-02-22T21:56:24;100879.09;;;6.66;100.00
20444;BME280;10381;53.730;10.010;2023-02-22T22:00:27;100873.63;;;6.56;100.00
20444;BME280;10381;53.730;10.010;2023-02-22T22:04:36;100873.44;;;6.47;100.00
20444;BME280;10381;53.730;10.010;2023-02-22T22:08:39;100869.97;;;6.46;100.00
20444;BME280;10381;53.730;10.010;2023-02-22T22:12:41;100875.13;;;6.48;100.00
20444;BME280;10381;53.730;10.010;2023-02-22T22:16:47;100876.72;;;6.37;100.00
20444;BME280;10381;53.730;10.010;2023-02-22T22:20:47;100870.06;;;6.32;100.00
20444;BME280;10381;53.730;10.010;2023-02-22T22:24:50;100871.47;;;6.37;100.00
20444;BME280;10381;53.730;10.010;2023-02-22T22:28:55;100874.19;;;6.36;100.00